Time;durP1;ratioP1;P1;durP2;ratioP2;P2;SDS_P1;SDS_P2;PMS_P1;PMS_P2;Temp;Humidity;BMP_temperature;BMP_pressure;BME280_temperature;BME280_humidity;BME280_pressure;Samples;Min_cycle;Max_cycle;Signal;HPM_P1;HPM_P2
2022/03/08 00:01:51;;;;;;;3.13;2.38;;;;;;;;;;5092980;28;20400;-56
2022/03/08 00:04:17;;;;;;;3.85;2.53;;;;;;;;;;5093483;28;20021;-57
2022/03/08 00:06:43;;;;;;;3.58;3.13;;;;;;;;;;5093848;28;20436;-56
2022/03/08 00:09:10;;;;;;;2.88;2.33;;;;;;;;;;5092868;28;20449;-57
2022/03/08 00:11:36;;;;;;;3.10;2.55;;;;;;;;;;5093479;28;20427;-57
2022/03/08 00:14:02;;;;;;;3.10;2.25;;;;;;;;;;5092836;28;20028;-57
2022/03/08 00:16:28;;;;;;;3.45;2.58;;;;;;;;;;5093675;28;20113;-56
2022/03/08 00:18:54;;;;;;;2.78;2.38;;;;;;;;;;5091914;28;20066;-56
2022/03/08 00:21:20;;;;;;;2.90;2.17;;;;;;;;;;5092653;28;20504;-56
2022/03/08 00:23:47;;;;;;;2.42;2.05;;;;;;;;;;5093385;28;20085;-57
2022/03/08 00:26:13;;;;;;;3.70;2.60;;;;;;;;;;5092971;28;20017;-57
2022/03/08 00:28:40;;;;;;;3.03;2.13;;;;;;;;;;5093099;28;20173;-56
2022/03/08 00:31:06;;;;;;;2.50;1.98;;;;;;;;;;5092401;28;20059;-57
2022/03/08 00:33:32;;;;;;;2.72;2.22;;;;;;;;;;5093137;28;20020;-57
2022/03/08 00:35:58;;;;;;;2.80;2.20;;;;;;;;;;5088698;28;20033;-56
2022/03/08 00:38:24;;;;;;;3.33;2.63;;;;;;;;;;5080903;28;20023;-55
2022/03/08 00:40:50;;;;;;;2.58;1.70;;;;;;;;;;5083159;28;20028;-55
2022/03/08 00:43:16;;;;;;;2.45;1.98;;;;;;;;;;5082148;28;20040;-56
2022/03/08 00:45:42;;;;;;;2.40;2.00;;;;;;;;;;5081172;28;20028;-57
2022/03/08 00:48:08;;;;;;;3.58;2.50;;;;;;;;;;5082002;28;20911;-56
2022/03/08 00:50:36;;;;;;;2.42;2.15;;;;;;;;;;5062788;28;20462;-55
2022/03/08 00:53:02;;;;;;;4.65;2.72;;;;;;;;;;5080238;28;20044;-55
2022/03/08 00:55:29;;;;;;;3.53;2.30;;;;;;;;;;5082563;28;20338;-57
2022/03/08 00:57:55;;;;;;;2.40;2.20;;;;;;;;;;5079762;28;20546;-56
2022/03/08 01:00:23;;;;;;;2.88;2.53;;;;;;;;;;5080222;28;20507;-54
2022/03/08 01:02:49;;;;;;;3.60;2.70;;;;;;;;;;5080809;28;20107;-51
2022/03/08 01:05:15;;;;;;;2.55;1.90;;;;;;;;;;5080074;28;20504;-56
2022/03/08 01:07:41;;;;;;;2.47;2.20;;;;;;;;;;5080247;28;20034;-56
2022/03/08 01:10:08;;;;;;;4.18;2.38;;;;;;;;;;5081022;28;20089;-55
2022/03/08 01:12:34;;;;;;;2.45;2.20;;;;;;;;;;5080321;28;20085;-54
2022/03/08 01:15:04;;;;;;;3.17;2.03;;;;;;;;;;5078731;28;20019;-56
2022/03/08 01:17:30;;;;;;;4.20;2.85;;;;;;;;;;5081150;28;20047;-55
2022/03/08 01:19:57;;;;;;;2.30;2.10;;;;;;;;;;5079577;28;20095;-55
2022/03/08 01:22:23;;;;;;;2.90;2.10;;;;;;;;;;5079563;28;20036;-56
2022/03/08 01:24:49;;;;;;;3.08;2.40;;;;;;;;;;5081991;28;20055;-51
2022/03/08 01:27:15;;;;;;;2.33;2.00;;;;;;;;;;5076536;28;20057;-57
2022/03/08 01:29:42;;;;;;;3.97;2.10;;;;;;;;;;5071980;28;20370;-56
2022/03/08 01:32:08;;;;;;;2.67;2.10;;;;;;;;;;5071160;28;20048;-57
2022/03/08 01:34:34;;;;;;;3.25;2.28;;;;;;;;;;5071928;28;20369;-57
2022/03/08 01:37:00;;;;;;;2.97;2.40;;;;;;;;;;5071017;28;20024;-56
2022/03/08 01:39:27;;;;;;;2.55;2.28;;;;;;;;;;5072018;28;20029;-56
2022/03/08 01:41:53;;;;;;;3.22;2.15;;;;;;;;;;5070993;28;20481;-50
2022/03/08 01:44:19;;;;;;;2.88;2.40;;;;;;;;;;5081430;28;20042;-57
2022/03/08 01:46:45;;;;;;;2.55;2.00;;;;;;;;;;5092169;28;20036;-56
2022/03/08 01:49:11;;;;;;;3.03;2.38;;;;;;;;;;5091059;28;20103;-57
2022/03/08 01:51:39;;;;;;;2.45;2.25;;;;;;;;;;5091916;28;20056;-57
2022/03/08 01:54:06;;;;;;;2.83;2.20;;;;;;;;;;5091136;28;20114;-57
2022/03/08 01:56:33;;;;;;;2.78;2.30;;;;;;;;;;5091975;28;20032;-57
2022/03/08 01:58:59;;;;;;;2.65;2.40;;;;;;;;;;5090931;28;20039;-56
2022/03/08 02:01:25;;;;;;;2.47;2.17;;;;;;;;;;5091923;28;20020;-57
2022/03/08 02:03:51;;;;;;;2.78;2.20;;;;;;;;;;5091520;28;20021;-50
2022/03/08 02:06:17;;;;;;;3.05;2.28;;;;;;;;;;5091299;28;20023;-57
2022/03/08 02:08:43;;;;;;;3.42;2.55;;;;;;;;;;5091079;28;20028;-56
2022/03/08 02:11:09;;;;;;;2.40;1.70;;;;;;;;;;5090531;28;20791;-57
2022/03/08 02:13:36;;;;;;;2.90;2.35;;;;;;;;;;5091551;28;20040;-56
2022/03/08 02:16:03;;;;;;;2.95;2.22;;;;;;;;;;5091168;28;20110;-57
2022/03/08 02:18:29;;;;;;;4.57;3.17;;;;;;;;;;5091697;28;20384;-57
2022/03/08 02:20:55;;;;;;;3.30;2.45;;;;;;;;;;5090932;28;20024;-56
2022/03/08 02:23:21;;;;;;;2.72;2.00;;;;;;;;;;5091222;28;20024;-57
2022/03/08 02:25:47;;;;;;;4.05;2.80;;;;;;;;;;5073622;28;20027;-56
2022/03/08 02:28:13;;;;;;;2.78;2.53;;;;;;;;;;5090767;28;20024;-56
2022/03/08 02:30:39;;;;;;;2.80;2.25;;;;;;;;;;5091630;28;20110;-57
2022/03/08 02:33:05;;;;;;;2.83;2.17;;;;;;;;;;5090774;28;20020;-55
2022/03/08 02:35:31;;;;;;;3.17;2.30;;;;;;;;;;5091523;28;20486;-57
2022/03/08 02:37:59;;;;;;;2.95;2.33;;;;;;;;;;5090790;28;20055;-56
2022/03/08 02:40:27;;;;;;;2.85;2.42;;;;;;;;;;5091469;28;20073;-56
2022/03/08 02:42:53;;;;;;;2.35;2.15;;;;;;;;;;5091570;28;20016;-51
2022/03/08 02:45:21;;;;;;;2.20;2.00;;;;;;;;;;5076953;28;20036;-56
2022/03/08 02:47:47;;;;;;;2.65;2.25;;;;;;;;;;5074848;28;20028;-57
2022/03/08 02:50:15;;;;;;;3.08;2.47;;;;;;;;;;5074125;28;20030;-57
2022/03/08 02:52:42;;;;;;;2.60;2.38;;;;;;;;;;5074683;28;20065;-57
2022/03/08 02:55:09;;;;;;;2.55;2.05;;;;;;;;;;5055918;28;20115;-57
2022/03/08 02:57:35;;;;;;;3.50;2.42;;;;;;;;;;5074646;28;20025;-57
2022/03/08 03:00:01;;;;;;;2.97;2.20;;;;;;;;;;5073961;28;20025;-56
2022/03/08 03:02:27;;;;;;;2.78;2.20;;;;;;;;;;5074721;28;20025;-57
2022/03/08 03:04:53;;;;;;;3.35;2.95;;;;;;;;;;5074217;28;20021;-52
2022/03/08 03:07:23;;;;;;;2.47;1.98;;;;;;;;;;5074001;28;20369;-56
2022/03/08 03:09:50;;;;;;;2.80;2.33;;;;;;;;;;5074256;28;20033;-57
2022/03/08 03:12:16;;;;;;;3.67;2.40;;;;;;;;;;5073833;28;20035;-56
2022/03/08 03:14:42;;;;;;;3.33;2.17;;;;;;;;;;5074255;28;20035;-56
2022/03/08 03:17:08;;;;;;;2.47;2.10;;;;;;;;;;5073198;28;20128;-54
2022/03/08 03:19:34;;;;;;;2.53;2.17;;;;;;;;;;5074343;28;20090;-56
2022/03/08 03:22:00;;;;;;;5.15;2.28;;;;;;;;;;5073683;28;20028;-56
2022/03/08 03:24:26;;;;;;;2.25;2.05;;;;;;;;;;5074051;28;20027;-55
2022/03/08 03:26:52;;;;;;;2.95;2.20;;;;;;;;;;5073790;28;20502;-52
2022/03/08 03:29:18;;;;;;;3.28;2.30;;;;;;;;;;5073312;28;20115;-55
2022/03/08 03:31:44;;;;;;;2.75;2.10;;;;;;;;;;5073876;28;20112;-57
2022/03/08 03:34:10;;;;;;;3.00;2.33;;;;;;;;;;5073147;28;20052;-57
2022/03/08 03:36:36;;;;;;;2.70;2.28;;;;;;;;;;5073998;28;20104;-58
2022/03/08 03:39:03;;;;;;;3.22;2.13;;;;;;;;;;5073148;28;20079;-58
2022/03/08 03:41:29;;;;;;;3.30;2.13;;;;;;;;;;5073915;28;20032;-49
2022/03/08 03:43:55;;;;;;;3.35;2.35;;;;;;;;;;5079379;28;20033;-48
2022/03/08 03:46:21;;;;;;;2.85;2.13;;;;;;;;;;5093873;28;20035;-59
2022/03/08 03:48:48;;;;;;;5.20;2.60;;;;;;;;;;5094115;28;20489;-59
2022/03/08 03:51:14;;;;;;;2.60;2.20;;;;;;;;;;5093090;28;20036;-58
2022/03/08 03:53:40;;;;;;;3.47;2.17;;;;;;;;;;5093731;28;20024;-58
2022/03/08 03:56:06;;;;;;;2.85;2.28;;;;;;;;;;5092988;28;20024;-59
2022/03/08 03:58:32;;;;;;;2.55;2.20;;;;;;;;;;5093942;28;20366;-59
2022/03/08 04:00:58;;;;;;;3.35;2.10;;;;;;;;;;5092984;28;20028;-57
2022/03/08 04:03:24;;;;;;;3.13;2.53;;;;;;;;;;5093722;28;20031;-57
2022/03/08 04:05:50;;;;;;;3.47;2.47;;;;;;;;;;5093991;28;20026;-57
2022/03/08 04:08:20;;;;;;;2.55;2.08;;;;;;;;;;5092470;28;20052;-57
2022/03/08 04:10:46;;;;;;;3.08;2.65;;;;;;;;;;5093126;28;20481;-57
2022/03/08 04:13:12;;;;;;;3.60;2.42;;;;;;;;;;5092882;28;20051;-56
2022/03/08 04:15:38;;;;;;;2.30;2.05;;;;;;;;;;5093378;28;20461;-56
2022/03/08 04:18:04;;;;;;;3.75;2.13;;;;;;;;;;5092807;28;20032;-57
2022/03/08 04:20:30;;;;;;;2.30;1.85;;;;;;;;;;5093159;28;20090;-58
2022/03/08 04:22:56;;;;;;;2.50;1.92;;;;;;;;;;5092815;28;20384;-53
2022/03/08 04:25:22;;;;;;;3.40;2.70;;;;;;;;;;5092870;28;20020;-58
2022/03/08 04:27:48;;;;;;;2.60;1.95;;;;;;;;;;5075084;28;20028;-59
2022/03/08 04:30:14;;;;;;;3.78;2.10;;;;;;;;;;5092481;28;20206;-59
2022/03/08 04:32:40;;;;;;;3.17;2.10;;;;;;;;;;5093414;28;20031;-59
2022/03/08 04:35:06;;;;;;;2.25;1.73;;;;;;;;;;5092444;28;20024;-59
2022/03/08 04:37:32;;;;;;;3.35;2.40;;;;;;;;;;5092790;28;20119;-59
2022/03/08 04:39:59;;;;;;;2.47;2.05;;;;;;;;;;5092304;28;20024;-53
2022/03/08 04:42:25;;;;;;;2.35;2.15;;;;;;;;;;5093036;28;20024;-59
2022/03/08 04:44:51;;;;;;;2.95;1.98;;;;;;;;;;5078984;28;20474;-59
2022/03/08 04:47:17;;;;;;;3.45;2.50;;;;;;;;;;5071624;28;20040;-60
2022/03/08 04:49:43;;;;;;;2.33;2.05;;;;;;;;;;5072587;28;20028;-59
2022/03/08 04:52:09;;;;;;;3.20;2.33;;;;;;;;;;5071695;28;20158;-58
2022/03/08 04:54:35;;;;;;;3.85;2.22;;;;;;;;;;5072582;28;20016;-58
2022/03/08 04:57:01;;;;;;;3.08;2.25;;;;;;;;;;5071255;28;20117;-59
2022/03/08 04:59:27;;;;;;;3.42;2.28;;;;;;;;;;5072465;28;20031;-58
2022/03/08 05:01:53;;;;;;;2.35;2.15;;;;;;;;;;5072253;28;20024;-58
2022/03/08 05:04:21;;;;;;;2.67;2.42;;;;;;;;;;5071614;28;20020;-58
2022/03/08 05:06:47;;;;;;;2.00;1.80;;;;;;;;;;5071137;28;20031;-56
2022/03/08 05:09:13;;;;;;;3.30;2.15;;;;;;;;;;5070425;28;20541;-58
2022/03/08 05:11:39;;;;;;;3.78;2.65;;;;;;;;;;5072056;28;20063;-57
2022/03/08 05:14:05;;;;;;;2.83;1.98;;;;;;;;;;5071446;28;20458;-58
2022/03/08 05:16:31;;;;;;;4.05;2.28;;;;;;;;;;5072088;28;20060;-59
2022/03/08 05:18:57;;;;;;;2.78;1.90;;;;;;;;;;5071834;28;20039;-53
2022/03/08 05:21:23;;;;;;;3.05;1.92;;;;;;;;;;5071921;28;20392;-58
2022/03/08 05:23:49;;;;;;;2.63;1.90;;;;;;;;;;5053940;28;20020;-57
2022/03/08 05:26:16;;;;;;;2.95;1.90;;;;;;;;;;5071093;28;20025;-58
2022/03/08 05:28:46;;;;;;;2.47;1.83;;;;;;;;;;5071922;28;20403;-58
2022/03/08 05:31:13;;;;;;;2.25;1.70;;;;;;;;;;5071332;28;20029;-57
2022/03/08 05:33:39;;;;;;;3.47;2.15;;;;;;;;;;5071652;28;20020;-56
2022/03/08 05:36:05;;;;;;;2.05;1.60;;;;;;;;;;5071264;28;20035;-58
2022/03/08 05:38:31;;;;;;;2.40;1.90;;;;;;;;;;5071863;28;20081;-56
2022/03/08 05:40:57;;;;;;;2.95;2.55;;;;;;;;;;5071526;28;20028;-52
2022/03/08 05:43:23;;;;;;;2.25;1.90;;;;;;;;;;5073026;28;20024;-58
2022/03/08 05:45:49;;;;;;;2.72;1.77;;;;;;;;;;5092054;28;20119;-52
2022/03/08 05:48:15;;;;;;;2.17;1.40;;;;;;;;;;5090874;28;20161;-58
2022/03/08 05:50:41;;;;;;;2.22;1.95;;;;;;;;;;5091879;28;20048;-58
2022/03/08 05:53:07;;;;;;;2.58;1.75;;;;;;;;;;5091044;28;20120;-59
2022/03/08 05:55:33;;;;;;;3.05;1.75;;;;;;;;;;5091627;28;20040;-58
2022/03/08 05:57:59;;;;;;;2.38;2.08;;;;;;;;;;5091145;28;20032;-53
2022/03/08 06:00:25;;;;;;;2.08;1.80;;;;;;;;;;5092014;28;20028;-58
2022/03/08 06:02:52;;;;;;;1.80;1.67;;;;;;;;;;5091879;28;20518;-59
2022/03/08 06:05:18;;;;;;;2.25;1.60;;;;;;;;;;5091497;28;20020;-58
2022/03/08 06:07:44;;;;;;;2.50;2.00;;;;;;;;;;5092008;28;20024;-58
2022/03/08 06:10:10;;;;;;;2.58;1.90;;;;;;;;;;5090776;28;20032;-58
2022/03/08 06:12:36;;;;;;;2.13;1.40;;;;;;;;;;5092135;28;20039;-58
2022/03/08 06:15:03;;;;;;;2.67;1.90;;;;;;;;;;5090280;28;20469;-57
2022/03/08 06:17:30;;;;;;;2.90;1.70;;;;;;;;;;5093514;28;20032;-58
2022/03/08 06:19:56;;;;;;;3.28;2.30;;;;;;;;;;5095709;28;20031;-58
2022/03/08 06:22:22;;;;;;;1.52;1.42;;;;;;;;;;5095213;28;20016;-57
2022/03/08 06:24:48;;;;;;;2.45;1.70;;;;;;;;;;5095663;28;20035;-58
2022/03/08 06:27:13;;;;;;;2.80;2.10;;;;;;;;;;5094186;28;20024;-56
2022/03/08 06:29:40;;;;;;;3.15;1.80;;;;;;;;;;5095602;28;20028;-58
2022/03/08 06:32:06;;;;;;;2.85;2.20;;;;;;;;;;5094673;28;20024;-58
2022/03/08 06:34:32;;;;;;;2.97;1.73;;;;;;;;;;5095166;28;20027;-52
2022/03/08 06:36:58;;;;;;;3.25;1.70;;;;;;;;;;5095785;28;20341;-54
2022/03/08 06:39:24;;;;;;;4.55;2.20;;;;;;;;;;5094817;28;20028;-53
2022/03/08 06:41:50;;;;;;;4.55;2.13;;;;;;;;;;5095088;28;20032;-52
2022/03/08 06:44:16;;;;;;;3.85;1.73;;;;;;;;;;5084993;28;20051;-51
2022/03/08 06:46:44;;;;;;;3.67;1.70;;;;;;;;;;5075238;28;20032;-50
2022/03/08 06:49:10;;;;;;;6.45;2.13;;;;;;;;;;5056047;28;20024;-62
2022/03/08 06:51:37;;;;;;;5.45;2.75;;;;;;;;;;5074905;28;20038;-50
2022/03/08 06:54:03;;;;;;;7.07;1.90;;;;;;;;;;5074173;28;20013;-56
2022/03/08 06:56:29;;;;;;;6.47;2.25;;;;;;;;;;5074837;28;20036;-60
2022/03/08 06:58:55;;;;;;;5.70;1.88;;;;;;;;;;5074194;28;20036;-58
2022/03/08 07:01:21;;;;;;;4.53;2.38;;;;;;;;;;5079167;28;20028;-57
2022/03/08 07:03:47;;;;;;;5.82;2.25;;;;;;;;;;5095329;28;20028;-57
2022/03/08 07:06:13;;;;;;;6.38;2.20;;;;;;;;;;5094863;28;20099;-57
2022/03/08 07:08:39;;;;;;;8.88;2.38;;;;;;;;;;5076520;28;20033;-59
2022/03/08 07:11:05;;;;;;;5.65;2.25;;;;;;;;;;5073681;28;20025;-53
2022/03/08 07:13:32;;;;;;;5.35;2.33;;;;;;;;;;5074221;28;20025;-52
2022/03/08 07:15:59;;;;;;;7.35;2.55;;;;;;;;;;5081809;28;20070;-50
2022/03/08 07:18:25;;;;;;;4.43;2.00;;;;;;;;;;5073433;28;20136;-52
2022/03/08 07:20:51;;;;;;;6.15;2.83;;;;;;;;;;5081320;28;20477;-52
2022/03/08 07:23:17;;;;;;;3.63;1.80;;;;;;;;;;5089972;28;20078;-54
2022/03/08 07:25:43;;;;;;;4.63;2.13;;;;;;;;;;5083947;28;20066;-54
2022/03/08 07:28:09;;;;;;;9.43;2.42;;;;;;;;;;5082197;28;20033;-55
2022/03/08 07:30:35;;;;;;;5.13;2.50;;;;;;;;;;5064355;28;20150;-52
2022/03/08 07:33:01;;;;;;;4.95;2.08;;;;;;;;;;5082373;28;20100;-56
2022/03/08 07:35:27;;;;;;;7.25;2.47;;;;;;;;;;5084695;28;20516;-52
2022/03/08 07:37:53;;;;;;;6.25;2.58;;;;;;;;;;5083147;28;20029;-53
2022/03/08 07:40:19;;;;;;;3.92;2.30;;;;;;;;;;5083660;28;20377;-46
2022/03/08 07:42:45;;;;;;;6.78;3.03;;;;;;;;;;5093923;28;20012;-53
2022/03/08 07:45:11;;;;;;;7.20;2.08;;;;;;;;;;5075996;28;20039;-51
2022/03/08 07:47:38;;;;;;;7.13;2.65;;;;;;;;;;5073614;28;20378;-50
2022/03/08 07:50:05;;;;;;;7.10;2.47;;;;;;;;;;5072889;28;20025;-53
2022/03/08 07:52:31;;;;;;;4.75;1.77;;;;;;;;;;5073517;28;20049;-52
2022/03/08 07:54:57;;;;;;;7.18;2.22;;;;;;;;;;5073403;28;20444;-52
2022/03/08 07:57:23;;;;;;;8.38;3.10;;;;;;;;;;5072525;28;20600;-53
2022/03/08 07:59:49;;;;;;;7.82;2.10;;;;;;;;;;5073329;28;20408;-51
2022/03/08 08:02:15;;;;;;;4.00;2.00;;;;;;;;;;5071643;28;20070;-49
2022/03/08 08:04:41;;;;;;;5.20;2.03;;;;;;;;;;5073207;28;20036;-51
2022/03/08 08:07:07;;;;;;;4.97;2.22;;;;;;;;;;5072672;28;20025;-53
2022/03/08 08:09:34;;;;;;;4.38;2.67;;;;;;;;;;5073229;28;20032;-52
2022/03/08 08:12:00;;;;;;;7.43;3.10;;;;;;;;;;5073223;28;20075;-51
2022/03/08 08:14:27;;;;;;;3.97;2.15;;;;;;;;;;5072063;28;20020;-49
2022/03/08 08:16:53;;;;;;;12.48;2.88;;;;;;;;;;5073212;28;20071;-50
2022/03/08 08:19:19;;;;;;;5.10;2.22;;;;;;;;;;5072560;28;20032;-53
2022/03/08 08:21:45;;;;;;;3.75;2.17;;;;;;;;;;5073168;28;20029;-52
2022/03/08 08:24:11;;;;;;;5.20;2.85;;;;;;;;;;5072347;28;20032;-50
2022/03/08 08:26:37;;;;;;;3.95;2.63;;;;;;;;;;5073038;28;20358;-50
2022/03/08 08:29:03;;;;;;;2.85;1.88;;;;;;;;;;5072733;28;20377;-54
2022/03/08 08:31:31;;;;;;;7.18;1.88;;;;;;;;;;5072225;28;20542;-52
2022/03/08 08:33:57;;;;;;;4.55;2.20;;;;;;;;;;5072692;28;20060;-52
2022/03/08 08:36:23;;;;;;;4.88;2.60;;;;;;;;;;5071967;28;20029;-52
2022/03/08 08:38:49;;;;;;;3.90;2.20;;;;;;;;;;5072915;28;20127;-52
2022/03/08 08:41:15;;;;;;;4.25;2.13;;;;;;;;;;5071015;28;20028;-53
2022/03/08 08:43:41;;;;;;;3.95;2.30;;;;;;;;;;5058861;28;20016;-53
2022/03/08 08:46:07;;;;;;;4.40;2.00;;;;;;;;;;5091687;28;20032;-54
2022/03/08 08:48:35;;;;;;;2.83;1.60;;;;;;;;;;5092752;28;20035;-53
2022/03/08 08:51:01;;;;;;;3.55;2.10;;;;;;;;;;5092810;28;20028;-51
2022/03/08 08:53:27;;;;;;;3.08;1.98;;;;;;;;;;5091745;28;20860;-53
2022/03/08 08:55:53;;;;;;;3.97;2.20;;;;;;;;;;5092645;28;20365;-51
2022/03/08 08:58:19;;;;;;;4.47;2.35;;;;;;;;;;5091863;28;20028;-52
2022/03/08 09:00:45;;;;;;;3.53;1.92;;;;;;;;;;5085138;28;20016;-53
2022/03/08 09:03:14;;;;;;;3.28;2.10;;;;;;;;;;5071702;28;20104;-49
2022/03/08 09:05:44;;;;;;;4.20;2.15;;;;;;;;;;5072167;28;20021;-49
2022/03/08 09:08:10;;;;;;;3.05;2.25;;;;;;;;;;5053478;28;20453;-53
2022/03/08 09:10:36;;;;;;;3.97;1.88;;;;;;;;;;5072022;28;20078;-51
2022/03/08 09:13:03;;;;;;;5.15;2.25;;;;;;;;;;5071804;28;20550;-50
2022/03/08 09:15:29;;;;;;;5.22;2.15;;;;;;;;;;5071305;28;20127;-51
2022/03/08 09:17:55;;;;;;;4.60;2.28;;;;;;;;;;5071580;28;20129;-49
2022/03/08 09:20:22;;;;;;;4.95;2.55;;;;;;;;;;5071038;28;20028;-51
2022/03/08 09:22:49;;;;;;;2.85;1.60;;;;;;;;;;5071698;28;20104;-50
2022/03/08 09:25:15;;;;;;;5.30;2.03;;;;;;;;;;5071104;28;20025;-50
2022/03/08 09:27:41;;;;;;;4.95;2.50;;;;;;;;;;5071771;28;20040;-54
2022/03/08 09:30:07;;;;;;;4.60;2.35;;;;;;;;;;5072273;28;20130;-53
2022/03/08 09:32:33;;;;;;;4.32;1.70;;;;;;;;;;5091464;28;20373;-51
2022/03/08 09:34:59;;;;;;;5.63;1.85;;;;;;;;;;5091946;28;20032;-52
2022/03/08 09:37:25;;;;;;;3.53;1.80;;;;;;;;;;5091156;28;20085;-52
2022/03/08 09:39:51;;;;;;;3.22;1.95;;;;;;;;;;5091728;28;20074;-52
2022/03/08 09:42:17;;;;;;;3.70;1.95;;;;;;;;;;5090994;28;20024;-53
2022/03/08 09:44:43;;;;;;;2.75;1.70;;;;;;;;;;5077588;28;20028;-53
2022/03/08 09:47:10;;;;;;;3.00;1.92;;;;;;;;;;5070483;28;20044;-54
2022/03/08 09:49:36;;;;;;;3.53;1.50;;;;;;;;;;5071721;28;20021;-50
2022/03/08 09:52:02;;;;;;;4.55;1.77;;;;;;;;;;5073446;28;20028;-51
2022/03/08 09:54:28;;;;;;;2.88;1.85;;;;;;;;;;5077616;28;20024;-51
2022/03/08 09:56:54;;;;;;;3.80;1.90;;;;;;;;;;5078262;28;20089;-53
2022/03/08 09:59:21;;;;;;;2.10;1.33;;;;;;;;;;5077519;28;20064;-50
2022/03/08 10:01:47;;;;;;;3.78;1.60;;;;;;;;;;5078069;28;20046;-50
2022/03/08 10:04:20;;;;;;;3.22;2.05;;;;;;;;;;5077253;28;20029;-52
2022/03/08 10:06:47;;;;;;;3.55;1.63;;;;;;;;;;5078227;28;20489;-52
2022/03/08 10:09:31;;;;;;;4.15;2.08;;;;;;;;;;5077285;28;20029;-49
2022/03/08 10:11:57;;;;;;;5.75;2.45;;;;;;;;;;5073365;28;20119;-53
2022/03/08 10:14:36;;;;;;;4.38;1.60;;;;;;;;;;5076790;28;20099;-53
2022/03/08 10:17:02;;;;;;;2.85;1.75;;;;;;;;;;5077378;28;20053;-54
2022/03/08 10:19:28;;;;;;;1.92;1.70;;;;;;;;;;5077470;28;20085;-50
2022/03/08 10:21:57;;;;;;;2.53;1.63;;;;;;;;;;5086136;28;20024;-52
2022/03/08 10:24:28;;;;;;;3.80;1.80;;;;;;;;;;5098430;28;20067;-52
2022/03/08 10:26:59;;;;;;;2.17;1.52;;;;;;;;;;5098879;28;20017;-51
2022/03/08 10:29:28;;;;;;;2.70;1.73;;;;;;;;;;5097483;28;20080;-51
2022/03/08 10:32:07;;;;;;;3.10;1.83;;;;;;;;;;5097995;28;20024;-49
2022/03/08 10:34:33;;;;;;;3.45;1.88;;;;;;;;;;5080263;28;20926;-53
2022/03/08 10:37:09;;;;;;;3.25;1.40;;;;;;;;;;5078257;28;20028;-50
2022/03/08 10:39:35;;;;;;;2.40;1.67;;;;;;;;;;5078088;28;20020;-51
2022/03/08 10:42:01;;;;;;;3.70;1.85;;;;;;;;;;5077682;28;20032;-53
2022/03/08 10:44:31;;;;;;;3.13;2.05;;;;;;;;;;5076880;28;20272;-53
2022/03/08 10:47:01;;;;;;;2.83;1.60;;;;;;;;;;5077850;28;20393;-51
2022/03/08 10:49:27;;;;;;;2.53;1.40;;;;;;;;;;5076892;28;20032;-50
2022/03/08 10:52:19;;;;;;;2.30;1.65;;;;;;;;;;5078009;28;20032;-53
2022/03/08 10:54:45;;;;;;;3.00;1.52;;;;;;;;;;5074167;28;20028;-50
2022/03/08 10:57:11;;;;;;;2.47;1.40;;;;;;;;;;5076970;28;20146;-50
2022/03/08 10:59:37;;;;;;;1.88;1.45;;;;;;;;;;5077714;28;20036;-51
2022/03/08 11:02:22;;;;;;;4.68;1.98;;;;;;;;;;5077497;28;20021;-49
2022/03/08 11:04:49;;;;;;;3.78;1.73;;;;;;;;;;5073948;28;20025;-49
2022/03/08 11:07:15;;;;;;;2.72;1.50;;;;;;;;;;5073811;28;20048;-53
2022/03/08 11:09:42;;;;;;;3.47;1.42;;;;;;;;;;5074279;28;20037;-50
2022/03/08 11:12:08;;;;;;;2.60;1.55;;;;;;;;;;5073832;28;20031;-51
2022/03/08 11:14:34;;;;;;;4.75;2.28;;;;;;;;;;5056388;28;20044;-51
2022/03/08 11:17:00;;;;;;;2.65;1.52;;;;;;;;;;5074571;28;20056;-51
2022/03/08 11:19:28;;;;;;;2.63;1.33;;;;;;;;;;5073708;28;20059;-54
2022/03/08 11:21:56;;;;;;;2.72;1.30;;;;;;;;;;5074305;28;20052;-50
2022/03/08 11:24:22;;;;;;;2.88;1.33;;;;;;;;;;5073470;28;20048;-51
2022/03/08 11:26:50;;;;;;;2.58;1.40;;;;;;;;;;5074141;28;20101;-51
2022/03/08 11:29:16;;;;;;;2.00;1.20;;;;;;;;;;5073337;28;20020;-51
2022/03/08 11:31:44;;;;;;;2.75;1.48;;;;;;;;;;5073846;28;20040;-53
2022/03/08 11:34:22;;;;;;;2.60;1.38;;;;;;;;;;5055242;28;20416;-50
2022/03/08 11:36:52;;;;;;;2.30;1.35;;;;;;;;;;5080036;28;20024;-52
2022/03/08 11:39:22;;;;;;;2.28;1.40;;;;;;;;;;5094795;28;20031;-50
2022/03/08 11:41:50;;;;;;;2.22;1.80;;;;;;;;;;5094590;28;20401;-53
2022/03/08 11:44:25;;;;;;;1.95;1.30;;;;;;;;;;5084069;28;20024;-53
2022/03/08 11:47:00;;;;;;;2.60;1.35;;;;;;;;;;5073853;28;20428;-50
2022/03/08 11:49:41;;;;;;;1.67;1.17;;;;;;;;;;5072749;28;20105;-53
2022/03/08 11:52:12;;;;;;;1.92;1.73;;;;;;;;;;5073234;28;20362;-53
2022/03/08 11:54:38;;;;;;;3.03;1.20;;;;;;;;;;5073590;28;20078;-53
2022/03/08 11:57:04;;;;;;;2.72;1.85;;;;;;;;;;5073536;28;20025;-50
2022/03/08 11:59:30;;;;;;;1.85;1.10;;;;;;;;;;5072759;28;20020;-53
2022/03/08 12:01:56;;;;;;;2.70;1.55;;;;;;;;;;5072886;28;20090;-49
2022/03/08 12:04:22;;;;;;;1.30;1.20;;;;;;;;;;5072447;28;20036;-49
2022/03/08 12:06:50;;;;;;;1.67;1.20;;;;;;;;;;5073266;28;20103;-53
2022/03/08 12:09:18;;;;;;;1.88;1.17;;;;;;;;;;5072547;28;20032;-51
2022/03/08 12:11:47;;;;;;;4.45;1.75;;;;;;;;;;5073352;28;20021;-51
2022/03/08 12:14:15;;;;;;;2.70;1.75;;;;;;;;;;5072344;28;20109;-50
2022/03/08 12:16:43;;;;;;;1.67;1.17;;;;;;;;;;5073016;28;20493;-51
2022/03/08 12:19:10;;;;;;;2.17;1.40;;;;;;;;;;5072613;28;20090;-53
2022/03/08 12:21:40;;;;;;;2.08;1.05;;;;;;;;;;5072354;28;20023;-52
2022/03/08 12:24:11;;;;;;;1.20;1.05;;;;;;;;;;5073034;28;20036;-54
2022/03/08 12:26:50;;;;;;;2.97;1.67;;;;;;;;;;5072791;28;20074;-51
2022/03/08 12:29:22;;;;;;;1.75;1.40;;;;;;;;;;5071944;28;20037;-51
2022/03/08 12:32:08;;;;;;;2.33;1.20;;;;;;;;;;5072838;28;20034;-51
2022/03/08 12:34:40;;;;;;;2.45;1.58;;;;;;;;;;5074196;28;20533;-53
2022/03/08 12:37:21;;;;;;;1.52;1.20;;;;;;;;;;5094284;28;20024;-53
2022/03/08 12:39:55;;;;;;;2.28;1.10;;;;;;;;;;5093731;28;20051;-51
2022/03/08 12:42:32;;;;;;;1.38;1.15;;;;;;;;;;5092129;28;20149;-53
2022/03/08 12:45:01;;;;;;;1.60;1.10;;;;;;;;;;5077834;28;20073;-50
2022/03/08 12:47:28;;;;;;;1.83;1.10;;;;;;;;;;5071350;28;20024;-51
2022/03/08 12:49:55;;;;;;;1.35;1.23;;;;;;;;;;5072534;28;20111;-52
2022/03/08 12:52:21;;;;;;;2.50;1.50;;;;;;;;;;5071542;28;20088;-53
2022/03/08 12:54:48;;;;;;;1.17;1.00;;;;;;;;;;5072202;28;20025;-52
2022/03/08 12:57:16;;;;;;;2.58;1.20;;;;;;;;;;5071685;28;20032;-53
2022/03/08 12:59:46;;;;;;;1.48;1.17;;;;;;;;;;5072156;28;20032;-53
2022/03/08 13:02:12;;;;;;;2.00;1.08;;;;;;;;;;5071514;28;20113;-53
2022/03/08 13:04:38;;;;;;;1.88;1.00;;;;;;;;;;5080064;28;20016;-51
2022/03/08 13:07:07;;;;;;;1.65;1.10;;;;;;;;;;5092000;28;20085;-53
2022/03/08 13:09:55;;;;;;;3.33;1.88;;;;;;;;;;5091470;28;20036;-51
2022/03/08 13:12:25;;;;;;;1.98;1.00;;;;;;;;;;5091518;28;20031;-50
2022/03/08 13:15:07;;;;;;;2.30;1.38;;;;;;;;;;5092069;28;20024;-53
2022/03/08 13:17:33;;;;;;;2.87;1.10;;;;;;;;;;5091121;28;20055;-52
2022/03/08 13:19:59;;;;;;;6.43;1.17;;;;;;;;;;5092405;28;20347;-52
2022/03/08 13:22:25;;;;;;;2.75;1.20;;;;;;;;;;5091633;28;20052;-50
2022/03/08 13:25:07;;;;;;;1.60;1.05;;;;;;;;;;5091571;28;20474;-51
2022/03/08 13:27:50;;;;;;;3.60;1.00;;;;;;;;;;5090436;28;20263;-52
2022/03/08 13:30:37;;;;;;;1.48;1.20;;;;;;;;;;5090720;28;20035;-51
2022/03/08 13:33:10;;;;;;;1.20;0.90;;;;;;;;;;5092145;28;20043;-53
2022/03/08 13:35:37;;;;;;;2.15;1.30;;;;;;;;;;5073871;28;20035;-50
2022/03/08 13:38:03;;;;;;;2.45;1.27;;;;;;;;;;5072012;28;20036;-53
2022/03/08 13:40:36;;;;;;;2.58;0.98;;;;;;;;;;5070988;28;20024;-51
2022/03/08 13:43:03;;;;;;;1.33;1.00;;;;;;;;;;5071771;28;20028;-52
2022/03/08 13:45:29;;;;;;;1.30;0.98;;;;;;;;;;5070835;28;20108;-51
2022/03/08 13:47:56;;;;;;;5.97;1.65;;;;;;;;;;5071603;28;20045;-53
2022/03/08 13:50:23;;;;;;;5.97;1.48;;;;;;;;;;5070725;28;20430;-50
2022/03/08 13:53:04;;;;;;;2.38;1.30;;;;;;;;;;5071429;28;20028;-52
2022/03/08 13:55:30;;;;;;;1.48;0.82;;;;;;;;;;5070027;28;20448;-52
2022/03/08 13:57:58;;;;;;;1.83;1.30;;;;;;;;;;5053249;28;20036;-52
2022/03/08 14:00:43;;;;;;;2.33;1.00;;;;;;;;;;5070120;28;20016;-51
2022/03/08 14:03:10;;;;;;;1.60;0.93;;;;;;;;;;5066022;28;20529;-49
2022/03/08 14:05:56;;;;;;;1.77;1.30;;;;;;;;;;5088079;28;20566;-53
2022/03/08 14:08:23;;;;;;;1.80;0.93;;;;;;;;;;5072275;28;20035;-52
2022/03/08 14:10:57;;;;;;;1.63;1.27;;;;;;;;;;5091293;28;20534;-49
2022/03/08 14:13:23;;;;;;;2.13;1.20;;;;;;;;;;5090734;28;20060;-49
2022/03/08 14:16:03;;;;;;;1.60;1.02;;;;;;;;;;5091407;28;20516;-51
2022/03/08 14:18:29;;;;;;;1.05;0.90;;;;;;;;;;5090766;28;20027;-49
2022/03/08 14:20:56;;;;;;;1.95;1.38;;;;;;;;;;5091395;28;20364;-51
2022/03/08 14:23:23;;;;;;;1.88;0.95;;;;;;;;;;5090427;28;20047;-52
2022/03/08 14:25:57;;;;;;;1.92;1.17;;;;;;;;;;5091965;28;20016;-53
2022/03/08 14:29:01;;;;;;;1.00;0.82;;;;;;;;;;5090905;28;20068;-49
2022/03/08 14:31:30;;;;;;;1.83;0.90;;;;;;;;;;5008319;28;20420;-52
2022/03/08 14:33:58;;;;;;;1.77;0.80;;;;;;;;;;5078049;28;20496;-53
2022/03/08 14:36:27;;;;;;;1.58;1.17;;;;;;;;;;5090564;28;20032;-52
2022/03/08 14:38:53;;;;;;;1.52;1.00;;;;;;;;;;5091870;28;20032;-53
2022/03/08 14:41:26;;;;;;;1.92;1.40;;;;;;;;;;5094234;28;20027;-54
2022/03/08 14:43:53;;;;;;;1.73;1.13;;;;;;;;;;5089346;28;20029;-52
2022/03/08 14:46:19;;;;;;;1.52;1.08;;;;;;;;;;5073963;28;20052;-53